Time;durP1;ratioP1;P1;durP2;ratioP2;P2;SDS_P1;SDS_P2;PMS_P1;PMS_P2;Temp;Humidity;BMP_temperature;BMP_pressure;BME280_temperature;BME280_humidity;BME280_pressure;Samples;Min_cycle;Max_cycle;Signal;HPM_P1;HPM_P2
2022/02/09 00:04:55;;;;;;;14.48;4.85;;;;;;;4.69;88.75;98774.22;5078563;28;20063;-62
2022/02/09 00:07:50;;;;;;;11.65;5.30;;;;;;;4.81;89.27;98777.31;5075403;28;20055;-62
2022/02/09 00:10:12;;;;;;;14.98;5.78;;;;;;;4.86;89.37;98773.28;5079242;28;20059;-62
2022/02/09 00:12:58;;;;;;;16.40;5.55;;;;;;;4.87;88.74;98786.47;5078924;28;20028;-62
2022/02/09 00:15:35;;;;;;;8.13;5.00;;;;;;;4.85;88.63;98782.31;5068802;28;20056;-61
2022/02/09 00:18:13;;;;;;;8.10;4.15;;;;;;;4.86;88.47;98786.69;5070999;28;20196;-61
2022/02/09 00:21:04;;;;;;;11.10;4.30;;;;;;;4.73;89.00;98787.28;5088488;28;20088;-61
2022/02/09 00:32:13;;;;;;;8.82;3.90;;;;;;;4.88;88.98;98784.66;5060473;28;20553;-61
2022/02/09 00:37:33;;;;;;;3.63;1.75;;;;;;;4.95;86.91;98777.56;5068982;28;20082;-62
2022/02/09 00:43:00;;;;;;;8.35;3.33;;;;;;;5.01;87.16;98792.91;5089451;28;20043;-61
2022/02/09 01:56:35;;;;;;;5.03;3.05;;;;;;;4.61;89.13;98736.72;5085335;28;20047;-62
2022/02/09 01:59:03;;;;;;;7.95;3.83;;;;;;;4.65;89.13;98732.66;5070827;28;20044;-62
2022/02/09 02:01:31;;;;;;;7.47;3.40;;;;;;;4.63;88.86;98734.69;5102804;28;20519;-62
2022/02/09 02:03:57;;;;;;;7.85;3.50;;;;;;;4.66;89.21;98741.53;5067141;28;20074;-62
2022/02/09 02:06:24;;;;;;;6.45;3.22;;;;;;;4.73;88.65;98730.94;5068489;28;20049;-62
2022/02/09 02:08:52;;;;;;;8.77;3.88;;;;;;;4.66;88.47;98728.97;5073652;28;20036;-62
2022/02/09 02:19:30;;;;;;;6.32;3.03;;;;;;;4.59;89.10;98733.38;5081293;28;20169;-62
2022/02/09 02:24:29;;;;;;;8.90;3.45;;;;;;;4.52;89.98;98722.53;5086789;28;20094;-62
2022/02/09 03:14:51;;;;;;;7.55;3.05;;;;;;;4.31;91.00;98682.13;5072222;28;20098;-62
2022/02/09 03:17:23;;;;;;;;;;;;;;;4.31;90.14;98682.94;5065918;28;20056;-62
2022/02/09 03:20:09;;;;;;;6.38;2.67;;;;;;;4.28;90.10;98669.94;5064048;28;19939;-62
2022/02/09 03:22:51;;;;;;;5.95;3.08;;;;;;;4.34;90.64;98671.03;5071187;28;20102;-61
2022/02/09 03:52:43;;;;;;;4.57;2.22;;;;;;;4.46;88.67;98664.22;5084082;28;20036;-61
2022/02/09 03:55:15;;;;;;;5.03;2.30;;;;;;;4.47;88.63;98667.75;5085422;28;20047;-60
2022/02/09 03:57:46;;;;;;;6.22;2.50;;;;;;;4.50;88.40;98662.84;5070922;28;20056;-61
2022/02/09 04:00:13;;;;;;;5.50;1.92;;;;;;;4.42;89.06;98661.09;5088624;28;20093;-61
2022/02/09 04:02:43;;;;;;;6.68;2.35;;;;;;;4.39;89.02;98669.47;5081230;28;20520;-61
2022/02/09 04:05:10;;;;;;;6.97;2.45;;;;;;;4.52;88.84;98666.22;5066020;28;20070;-60
2022/02/09 04:07:36;;;;;;;4.70;2.47;;;;;;;4.49;88.42;98663.88;5084147;28;20044;-59
2022/02/09 04:10:06;;;;;;;6.63;2.40;;;;;;;4.39;89.02;98660.63;5086093;28;20043;-61
2022/02/09 04:36:30;;;;;;;5.32;2.03;;;;;;;4.98;85.01;98659.09;5074424;28;20045;-62
2022/02/09 04:52:36;;;;;;;7.63;2.13;;;;;;;4.50;89.22;98654.81;5045120;28;20056;-62
2022/02/09 04:57:58;;;;;;;4.32;2.00;;;;;;;4.45;87.87;98645.66;5068515;28;20047;-61
2022/02/09 05:27:37;;;;;;;8.45;2.70;;;;;;;4.67;86.73;98638.56;5068334;28;20037;-62
2022/02/09 05:29:35;;;;;;;6.47;2.80;;;;;;;4.60;86.73;98638.47;5071150;28;20056;-62
2022/02/09 05:32:02;;;;;;;6.18;2.70;;;;;;;4.58;87.03;98643.19;5071545;28;20094;-62
2022/02/09 05:34:28;;;;;;;7.03;2.75;;;;;;;4.62;86.43;98644.50;5068358;28;20045;-61
2022/02/09 05:36:56;;;;;;;6.05;2.13;;;;;;;4.52;87.24;98644.75;5067738;28;20048;-60
2022/02/09 05:39:22;;;;;;;3.75;2.05;;;;;;;4.45;87.57;98637.63;5070075;28;20044;-61
2022/02/09 05:41:49;;;;;;;4.00;1.92;;;;;;;4.48;88.57;98645.28;5088042;28;20048;-60
2022/02/09 05:44:15;;;;;;;4.72;2.05;;;;;;;4.52;87.64;98642.06;5075584;28;20041;-60
2022/02/09 05:47:14;;;;;;;6.20;3.20;;;;;;;4.59;87.29;98639.50;5067690;28;20087;-60
2022/02/09 05:57:47;;;;;;;5.53;2.25;;;;;;;4.63;86.88;98645.31;5067421;28;20060;-61
2022/02/09 06:00:14;;;;;;;4.85;1.85;;;;;;;4.84;85.28;98655.34;5091093;28;20046;-61
2022/02/09 06:02:44;;;;;;;6.97;1.70;;;;;;;5.10;83.17;98653.25;5094242;28;20048;-61
2022/02/09 06:05:13;;;;;;;3.47;1.45;;;;;;;5.31;81.89;98655.19;5071886;28;20045;-60
2022/02/09 06:07:40;;;;;;;4.28;2.10;;;;;;;5.03;83.98;98662.03;5067168;28;20040;-61
2022/02/09 06:10:17;;;;;;;7.32;2.47;;;;;;;4.87;84.89;98663.03;5075640;28;20433;-60
2022/02/09 06:13:48;;;;;;;6.65;2.53;;;;;;;4.69;85.83;98660.69;5077654;28;20032;-61
2022/02/09 06:21:02;;;;;;;3.22;1.80;;;;;;;5.19;81.82;98660.19;5070318;28;20499;-61
2022/02/09 06:23:34;;;;;;;3.70;1.80;;;;;;;5.31;81.29;98672.13;5082828;28;20036;-61
2022/02/09 06:26:02;;;;;;;5.53;1.85;;;;;;;5.32;81.15;98670.28;5083792;28;20040;-65
2022/02/09 06:28:32;;;;;;;6.75;2.00;;;;;;;5.36;80.63;98668.91;5082171;28;20044;-64
2022/02/09 06:30:59;;;;;;;4.93;1.70;;;;;;;5.47;79.99;98660.38;5073208;28;20039;-63
2022/02/09 06:33:25;;;;;;;5.80;1.88;;;;;;;5.57;79.80;98660.06;5071058;28;20715;-64
2022/02/09 06:35:56;;;;;;;3.40;1.70;;;;;;;5.53;79.68;98657.97;5064588;28;20033;-63
2022/02/09 06:38:22;;;;;;;4.93;1.77;;;;;;;5.41;80.30;98660.25;5064988;28;20044;-64
2022/02/09 06:40:54;;;;;;;5.68;2.10;;;;;;;5.42;80.86;98661.97;5093249;28;20044;-64
2022/02/09 06:43:20;;;;;;;3.92;1.60;;;;;;;5.47;80.29;98665.75;5081919;28;20106;-64
2022/02/09 06:45:47;;;;;;;5.03;2.08;;;;;;;5.39;80.34;98662.31;5090361;28;20050;-64
2022/02/09 06:48:18;;;;;;;5.45;1.80;;;;;;;5.23;81.36;98647.25;5077714;28;20055;-64
2022/02/09 06:50:53;;;;;;;5.30;2.17;;;;;;;5.03;82.21;98650.47;5084403;28;20051;-64
2022/02/09 06:55:58;;;;;;;4.05;2.00;;;;;;;4.98;82.79;98655.56;5069033;28;20041;-64
2022/02/09 07:01:01;;;;;;;4.95;1.80;;;;;;;5.38;80.91;98658.78;5091656;28;20475;-64
2022/02/09 07:03:28;;;;;;;3.70;1.83;;;;;;;5.43;81.08;98648.34;5074758;28;20043;-64
2022/02/09 07:05:54;;;;;;;4.10;2.05;;;;;;;5.34;80.99;98650.28;5082188;28;20059;-64
2022/02/09 07:08:21;;;;;;;5.85;2.75;;;;;;;5.46;80.72;98653.31;5095657;28;20062;-65
2022/02/09 07:10:47;;;;;;;6.93;2.80;;;;;;;5.61;79.97;98655.16;5083829;28;20044;-64
2022/02/09 07:13:15;;;;;;;5.70;2.70;;;;;;;5.42;80.59;98649.34;5089411;28;20040;-64
2022/02/09 07:15:49;;;;;;;6.35;3.10;;;;;;;5.22;81.37;98641.03;5090735;28;20035;-64
2022/02/09 07:18:16;;;;;;;6.95;2.83;;;;;;;5.12;82.25;98648.53;5104640;28;20044;-64
2022/02/09 07:23:32;;;;;;;9.50;2.67;;;;;;;5.04;83.11;98647.59;5094492;28;20043;-64
2022/02/09 07:28:29;;;;;;;6.72;2.63;;;;;;;4.85;83.84;98643.59;5082179;28;20044;-64
2022/02/09 07:30:56;;;;;;;6.28;2.28;;;;;;;4.75;84.27;98646.53;5097198;28;20108;-65
2022/02/09 07:33:22;;;;;;;8.02;2.90;;;;;;;4.62;84.07;98641.81;5090973;28;20054;-65
2022/02/09 07:35:49;;;;;;;7.13;2.60;;;;;;;4.60;84.81;98646.50;5101727;28;20104;-65
2022/02/09 07:38:15;;;;;;;5.75;2.50;;;;;;;4.51;84.31;98645.78;5103245;28;20429;-64
2022/02/09 07:40:43;;;;;;;7.68;2.70;;;;;;;4.45;84.49;98646.47;5103592;28;20112;-66
2022/02/09 07:43:22;;;;;;;7.95;2.90;;;;;;;4.39;84.46;98637.31;5102689;28;20032;-64
2022/02/09 07:46:18;;;;;;;6.35;2.70;;;;;;;4.22;84.55;98641.97;5083933;28;20063;-65
2022/02/09 07:53:57;;;;;;;4.55;1.98;;;;;;;3.93;86.37;98648.88;5103677;28;20043;-65
2022/02/09 07:56:25;;;;;;;5.80;2.35;;;;;;;3.96;85.86;98647.69;5103529;28;20044;-65
2022/02/09 07:58:52;;;;;;;6.20;2.03;;;;;;;4.05;85.18;98643.94;5104235;28;20088;-65
2022/02/09 08:01:19;;;;;;;5.15;2.28;;;;;;;4.08;85.53;98643.59;5093024;28;20124;-64
2022/02/09 08:03:46;;;;;;;4.53;2.20;;;;;;;4.09;85.48;98634.50;5102222;28;20036;-65
2022/02/09 08:06:13;;;;;;;5.95;2.53;;;;;;;3.95;85.85;98637.97;5105154;28;20044;-65
2022/02/09 08:08:42;;;;;;;4.65;2.05;;;;;;;3.96;86.11;98632.44;5108177;28;20043;-65
2022/02/09 08:11:18;;;;;;;4.43;1.90;;;;;;;4.05;86.34;98633.22;5108771;28;20479;-65
2022/02/09 08:29:46;;;;;;;6.97;1.75;;;;;;;4.75;86.06;98618.91;5101178;28;20048;-65
2022/02/09 08:34:59;;;;;;;6.70;1.98;;;;;;;5.02;83.83;98617.41;5103781;28;20055;-65
2022/02/09 08:37:26;;;;;;;4.97;1.98;;;;;;;5.10;84.02;98607.59;5085639;28;20543;-65
2022/02/09 08:39:54;;;;;;;3.95;1.70;;;;;;;5.14;84.10;98614.25;5091799;28;20047;-65
2022/02/09 08:42:21;;;;;;;9.05;2.13;;;;;;;5.24;83.80;98605.94;5096327;28;20260;-65
2022/02/09 08:44:48;;;;;;;9.02;2.45;;;;;;;5.32;82.88;98609.38;5091404;28;20044;-65
2022/02/09 08:47:34;;;;;;;6.78;2.58;;;;;;;5.40;82.66;98603.03;5096104;28;20580;-65
2022/02/09 08:50:03;;;;;;;8.30;2.78;;;;;;;5.52;82.00;98597.16;5107147;28;20101;-64
2022/02/09 08:52:30;;;;;;;8.45;2.83;;;;;;;5.57;82.03;98603.66;5093828;28;20048;-65
2022/02/09 08:54:58;;;;;;;6.43;2.53;;;;;;;5.64;80.91;98595.66;5085686;28;20048;-64
2022/02/09 08:57:27;;;;;;;5.00;2.58;;;;;;;5.71;80.88;98598.41;5100245;28;20052;-65
2022/02/09 08:59:54;;;;;;;7.63;2.50;;;;;;;5.77;81.09;98597.66;5094856;28;20093;-65
2022/02/09 09:02:23;;;;;;;9.93;2.20;;;;;;;5.85;80.71;98596.69;5088977;28;20044;-65
2022/02/09 09:04:56;;;;;;;7.32;2.50;;;;;;;5.90;80.14;98593.47;5092291;28;20057;-65
2022/02/09 09:07:33;;;;;;;8.05;2.65;;;;;;;5.96;79.46;98590.00;5094452;28;20112;-65
2022/02/09 09:16:40;;;;;;;7.03;2.25;;;;;;;6.13;78.81;98593.28;5087050;28;20097;-65
2022/02/09 09:18:53;;;;;;;4.13;1.50;;;;;;;6.25;77.67;98585.53;5085057;28;20052;-65
2022/02/09 10:02:38;;;;;;;5.93;2.08;;;;;;;6.95;73.50;98570.47;5085006;28;20055;-65
2022/02/09 10:33:56;;;;;;;4.00;1.52;;;;;;;7.89;71.02;98551.94;5082038;28;20509;-64
2022/02/09 10:36:23;;;;;;;5.72;1.70;;;;;;;7.96;70.71;98548.44;5096071;28;20411;-65
2022/02/09 10:39:12;;;;;;;8.50;1.60;;;;;;;8.00;70.80;98538.91;5079323;28;20036;-65
2022/02/09 10:41:56;;;;;;;5.70;2.33;;;;;;;8.00;71.02;98528.94;5084115;28;20048;-65
2022/02/09 10:44:26;;;;;;;8.68;2.10;;;;;;;8.03;71.05;98530.38;5086065;28;20040;-65
2022/02/09 10:46:59;;;;;;;5.57;1.55;;;;;;;8.15;70.17;98533.31;5078943;28;20105;-65
2022/02/09 10:49:30;;;;;;;5.60;1.80;;;;;;;8.10;69.79;98528.53;5082847;28;20052;-65
2022/02/09 10:54:29;;;;;;;8.25;2.97;;;;;;;8.27;71.41;98518.16;5086930;28;20225;-65
2022/02/09 10:56:57;;;;;;;7.45;2.03;;;;;;;8.44;69.64;98518.53;5073939;28;20044;-63
2022/02/09 10:59:30;;;;;;;5.20;2.13;;;;;;;8.54;69.17;98509.22;5098440;28;20500;-63
2022/02/09 11:02:00;;;;;;;4.05;1.45;;;;;;;8.54;69.67;98501.94;5076004;28;20051;-63
2022/02/09 11:04:32;;;;;;;5.13;1.90;;;;;;;8.67;69.17;98502.97;5084570;28;20051;-63
2022/02/09 11:07:00;;;;;;;4.93;1.60;;;;;;;8.63;68.79;98494.47;5077261;28;20050;-63
2022/02/09 11:09:28;;;;;;;3.67;1.80;;;;;;;8.64;68.97;98501.53;5078940;28;20044;-63
2022/02/09 11:11:55;;;;;;;5.72;1.90;;;;;;;8.70;68.87;98494.44;5079983;28;20044;-64
2022/02/09 11:14:26;;;;;;;5.90;2.05;;;;;;;8.83;72.80;98483.59;5083088;28;20040;-52
2022/02/09 11:17:00;;;;;;;5.77;1.90;;;;;;;9.03;67.79;98477.28;5098977;28;20046;-55
2022/02/09 11:19:37;;;;;;;8.52;1.95;;;;;;;8.98;67.20;98472.53;5104697;28;20285;-55
2022/02/09 11:22:11;;;;;;;4.00;1.20;;;;;;;9.20;71.02;98465.97;5080932;28;20043;-57
2022/02/09 11:24:44;;;;;;;3.65;1.30;;;;;;;9.58;65.78;98464.31;5097709;28;20035;-56
2022/02/09 11:29:50;;;;;;;4.03;1.70;;;;;;;9.85;65.11;98461.41;5089382;28;20036;-55
2022/02/09 11:32:31;;;;;;;6.03;1.73;;;;;;;9.92;64.57;98455.94;5103474;28;20126;-55
2022/02/09 11:35:03;;;;;;;6.00;1.73;;;;;;;9.82;65.21;98461.84;5097321;28;20062;-57
2022/02/09 11:37:46;;;;;;;7.30;2.38;;;;;;;10.00;64.58;98456.47;5097445;28;20054;-57
2022/02/09 11:40:37;;;;;;;6.68;1.40;;;;;;;9.89;65.15;98460.72;5087332;28;20430;-63
2022/02/09 11:43:27;;;;;;;5.03;1.60;;;;;;;9.89;65.37;98458.03;5081357;28;20055;-63
2022/02/09 11:57:29;;;;;;;4.07;1.75;;;;;;;10.05;65.82;98442.28;5095887;28;20048;-65
2022/02/09 12:19:10;;;;;;;4.55;1.75;;;;;;;10.32;64.55;98409.53;5083122;28;20036;-65
2022/02/09 12:21:52;;;;;;;3.90;1.30;;;;;;;10.28;64.82;98406.47;5081515;28;20048;-64
2022/02/09 12:24:24;;;;;;;3.10;1.35;;;;;;;10.21;64.59;98408.41;5084856;28;20047;-65
2022/02/09 12:27:11;;;;;;;5.53;1.25;;;;;;;10.25;64.73;98403.41;5099535;28;20044;-64
2022/02/09 12:29:45;;;;;;;3.88;1.33;;;;;;;10.45;64.49;98397.78;5084168;28;20044;-65
2022/02/09 12:32:15;;;;;;;4.18;1.50;;;;;;;10.61;63.86;98393.63;5103819;28;20047;-65
2022/02/09 12:34:44;;;;;;;4.68;1.45;;;;;;;10.63;63.31;98393.41;5088473;28;20028;-65
2022/02/09 12:37:16;;;;;;;7.80;1.60;;;;;;;10.59;63.47;98390.34;5093098;28;20572;-65
2022/02/09 12:39:47;;;;;;;6.38;1.73;;;;;;;10.62;64.05;98386.34;5068673;28;20040;-65
2022/02/09 12:42:14;;;;;;;4.88;1.50;;;;;;;10.59;63.55;98374.09;5083708;28;20580;-65
2022/02/09 12:44:41;;;;;;;3.63;1.15;;;;;;;10.47;64.18;98382.13;5101462;28;20043;-65
2022/02/09 12:47:07;;;;;;;5.18;1.30;;;;;;;10.45;64.13;98378.84;5090329;28;20055;-65
2022/02/09 12:49:34;;;;;;;7.13;1.50;;;;;;;10.44;64.28;98371.78;5086149;28;20048;-65
2022/02/09 12:52:00;;;;;;;3.92;1.25;;;;;;;10.50;64.41;98376.28;5103736;28;20105;-65
2022/02/09 12:54:27;;;;;;;3.10;1.30;;;;;;;10.56;64.30;98379.13;5094005;28;20043;-65
2022/02/09 12:56:55;;;;;;;5.40;1.48;;;;;;;10.52;64.75;98363.34;5094939;28;20499;-65
2022/02/09 12:59:22;;;;;;;4.10;1.30;;;;;;;10.57;65.19;98362.66;5088521;28;20068;-65
2022/02/09 13:01:53;;;;;;;2.83;1.13;;;;;;;10.61;65.12;98363.84;5087686;28;20043;-65
2022/02/09 13:04:33;;;;;;;4.75;1.50;;;;;;;10.70;64.12;98363.53;5099937;28;20137;-65
2022/02/09 13:07:09;;;;;;;5.03;1.20;;;;;;;10.76;63.83;98358.03;5084592;28;20036;-66
2022/02/09 13:09:36;;;;;;;3.47;1.10;;;;;;;10.74;63.34;98354.72;5088586;28;20051;-65
2022/02/09 13:12:03;;;;;;;3.58;1.25;;;;;;;10.72;63.87;98353.31;5076621;28;20097;-65
2022/02/09 13:14:38;;;;;;;3.63;1.63;;;;;;;10.82;63.53;98359.00;5084376;28;20415;-66
2022/02/09 14:03:36;;;;;;;3.72;1.50;;;;;;;11.17;62.79;98311.41;5070532;28;20139;-62
2022/02/09 14:06:56;;;;;;;4.20;1.40;;;;;;;11.12;63.33;98306.66;5067575;28;20048;-63
2022/02/09 14:11:59;;;;;;;5.82;1.52;;;;;;;11.24;62.88;98301.25;5069928;28;20048;-64
2022/02/09 14:47:57;;;;;;;6.43;1.63;;;;;;;17.85;43.82;98287.75;5087140;28;20101;-63
2022/02/09 14:53:02;;;;;;;4.68;1.30;;;;;;;18.38;41.87;98288.41;5087174;28;20101;-64
2022/02/09 14:55:43;;;;;;;5.22;1.70;;;;;;;17.90;42.92;98290.47;5065730;28;20487;-64
2022/02/09 14:58:12;;;;;;;8.32;2.97;;;;;;;16.58;45.97;98291.78;5066557;28;20051;-63
2022/02/09 15:00:57;;;;;;;7.15;2.30;;;;;;;16.55;46.71;98286.84;5094526;28;20696;-64
2022/02/09 15:08:31;;;;;;;4.18;1.52;;;;;;;17.79;43.68;98283.38;5084120;28;20470;-64
2022/02/09 15:11:22;;;;;;;7.53;3.25;;;;;;;17.81;43.39;98290.22;5089278;28;20047;-64
2022/02/09 15:16:37;;;;;;;;;;;;;;;16.97;45.08;98285.84;5084911;28;20032;-64
2022/02/09 15:24:37;;;;;;;3.45;1.27;;;;;;;17.99;42.47;98277.00;5075471;28;20072;-64
2022/02/09 15:27:05;;;;;;;4.85;1.40;;;;;;;18.12;41.97;98283.88;5084020;28;20047;-64
2022/02/09 15:29:36;;;;;;;4.82;1.77;;;;;;;18.05;42.57;98278.66;5074862;28;20562;-64
2022/02/09 15:32:08;;;;;;;6.47;1.88;;;;;;;17.61;43.48;98276.59;5082362;28;20536;-64
2022/02/09 15:34:46;;;;;;;7.80;3.22;;;;;;;16.17;46.82;98274.13;5084977;28;20127;-63
2022/02/09 15:39:44;;;;;;;4.15;1.65;;;;;;;16.14;46.55;98277.41;5084398;28;20110;-64
2022/02/09 16:22:37;;;;;;;6.25;1.70;;;;;;;9.46;67.66;98259.56;5073815;28;20052;-63
2022/02/09 16:39:06;;;;;;;5.40;1.40;;;;;;;6.52;77.11;98267.41;5089727;28;20051;-63
2022/02/09 16:46:35;;;;;;;8.27;1.52;;;;;;;5.97;77.76;98263.69;5086195;28;20037;-63
2022/02/09 16:49:08;;;;;;;6.40;1.80;;;;;;;5.68;77.94;98263.72;5079253;28;20062;-63
2022/02/09 16:51:52;;;;;;;4.30;1.50;;;;;;;5.55;78.48;98271.72;5086695;28;20465;-63
2022/02/09 16:56:57;;;;;;;6.80;1.63;;;;;;;5.45;78.94;98269.38;5083117;28;20051;-63
2022/02/09 17:21:37;;;;;;;8.25;3.80;;;;;;;4.61;82.40;98277.16;5039311;28;20091;-61
2022/02/09 17:24:04;;;;;;;8.52;3.22;;;;;;;4.36;81.65;98275.69;5036582;28;20092;-61
2022/02/09 17:26:32;;;;;;;17.60;9.25;;;;;;;4.21;82.71;98274.88;5050397;28;20426;-61
2022/02/09 17:29:03;;;;;;;14.02;6.82;;;;;;;4.29;83.24;98278.28;5094346;28;20059;-61
2022/02/09 17:31:40;;;;;;;;;;;;;;;4.38;83.29;98272.78;5086571;28;20051;-61
2022/02/09 17:53:24;;;;;;;10.35;6.50;;;;;;;3.93;83.44;98276.41;5102754;28;20523;-61
2022/02/09 17:58:34;;;;;;;11.00;4.28;;;;;;;3.48;84.27;98279.94;5085509;28;20059;-59
2022/02/09 18:01:02;;;;;;;11.07;4.00;;;;;;;3.61;85.54;98273.09;5087743;28;20048;-61
2022/02/09 18:03:29;;;;;;;14.10;5.00;;;;;;;3.70;85.17;98279.19;5087375;28;20155;-60
2022/02/09 18:06:06;;;;;;;7.22;3.95;;;;;;;3.84;85.43;98277.50;5081623;28;20450;-59
2022/02/09 18:08:48;;;;;;;10.43;3.75;;;;;;;4.06;84.19;98280.25;5080875;28;20047;-60
2022/02/09 18:11:27;;;;;;;10.70;4.43;;;;;;;4.14;82.80;98272.13;5085992;28;20105;-60
2022/02/09 18:14:22;;;;;;;15.65;8.90;;;;;;;3.53;84.26;98273.19;5073241;28;20080;-61
2022/02/09 18:25:44;;;;;;;18.85;9.05;;;;;;;3.67;84.48;98275.03;5082004;28;20044;-61
2022/02/09 18:30:45;;;;;;;11.48;6.60;;;;;;;3.62;84.47;98280.91;5073541;28;20083;-61
2022/02/09 18:43:52;;;;;;;7.78;4.13;;;;;;;3.30;85.85;98268.72;5078022;28;20051;-61
2022/02/09 18:46:31;;;;;;;9.20;4.32;;;;;;;3.42;85.13;98269.94;5068862;28;20040;-61
2022/02/09 18:57:13;;;;;;;10.77;5.72;;;;;;;3.03;86.14;98253.09;5079079;28;20036;-61
2022/02/09 19:02:41;;;;;;;12.75;5.50;;;;;;;2.93;86.06;98260.53;5081166;28;20040;-60
2022/02/09 19:20:58;;;;;;;10.88;4.50;;;;;;;2.82;85.10;98243.06;5076088;28;20503;-60
2022/02/09 19:31:33;;;;;;;11.82;6.30;;;;;;;2.31;87.99;98228.41;5085031;28;20059;-61
2022/02/09 19:47:26;;;;;;;16.33;7.82;;;;;;;2.06;88.28;98233.88;5070440;28;20047;-61
2022/02/09 19:55:34;;;;;;;17.83;7.88;;;;;;;2.29;87.92;98236.59;5046393;28;20052;-61
2022/02/09 19:58:01;;;;;;;16.13;7.90;;;;;;;2.20;88.37;98238.50;5085085;28;20032;-60
2022/02/09 20:00:32;;;;;;;14.85;6.10;;;;;;;2.11;87.72;98228.88;5093795;28;20055;-61
2022/02/09 20:02:59;;;;;;;14.85;6.43;;;;;;;2.20;88.24;98233.16;5082889;28;20040;-61
2022/02/09 20:05:26;;;;;;;17.17;5.80;;;;;;;2.18;87.41;98232.47;5087767;28;20047;-61
2022/02/09 20:07:55;;;;;;;16.52;7.03;;;;;;;2.17;87.17;98233.50;5082776;28;20040;-61
2022/02/09 20:10:23;;;;;;;8.05;5.00;;;;;;;1.98;87.45;98223.28;5078501;28;20056;-61
2022/02/09 20:12:50;;;;;;;13.35;5.97;;;;;;;2.02;87.98;98232.56;5087151;28;20095;-61
2022/02/09 20:15:17;;;;;;;8.20;4.75;;;;;;;2.10;88.03;98235.19;5087387;28;20411;-60
2022/02/09 20:17:47;;;;;;;11.90;5.85;;;;;;;2.28;87.52;98226.91;5085312;28;20051;-61
2022/02/09 20:20:22;;;;;;;12.98;6.25;;;;;;;2.10;87.71;98219.16;5079651;28;20052;-61
2022/02/09 20:22:51;;;;;;;12.55;6.25;;;;;;;1.95;88.29;98221.75;5092958;28;20463;-61
2022/02/09 20:25:19;;;;;;;13.15;6.70;;;;;;;1.74;88.41;98217.03;5080205;28;20085;-61
2022/02/09 20:27:48;;;;;;;10.90;5.93;;;;;;;1.81;88.77;98218.00;5083697;28;20036;-59
2022/02/09 20:30:18;;;;;;;12.40;6.50;;;;;;;1.87;88.62;98224.47;5086751;28;20055;-60
2022/02/09 20:32:56;;;;;;;11.90;6.40;;;;;;;1.76;88.05;98217.69;5087540;28;20048;-61
2022/02/09 20:35:23;;;;;;;11.73;6.18;;;;;;;1.56;88.60;98218.94;5070840;28;20044;-60
2022/02/09 20:37:53;;;;;;;19.20;6.57;;;;;;;1.41;88.83;98218.81;5083958;28;20044;-60
2022/02/09 20:40:23;;;;;;;15.20;6.63;;;;;;;1.29;89.84;98221.03;5087566;28;20047;-61
2022/02/09 20:42:56;;;;;;;13.93;7.03;;;;;;;1.42;90.93;98223.19;5086431;28;20103;-61
2022/02/09 20:47:58;;;;;;;11.73;6.25;;;;;;;1.49;89.61;98225.13;5086289;28;20032;-61
2022/02/09 20:50:25;;;;;;;12.98;6.18;;;;;;;1.46;90.09;98226.31;5073227;28;20052;-61
2022/02/09 20:52:52;;;;;;;11.70;6.13;;;;;;;1.47;89.78;98222.63;5074419;28;20054;-60
2022/02/09 20:55:19;;;;;;;10.13;5.40;;;;;;;1.17;87.54;98223.25;5086724;28;20048;-61
2022/02/09 20:57:46;;;;;;;11.07;6.57;;;;;;;1.14;90.32;98223.56;5085032;28;20090;-61
2022/02/09 21:00:20;;;;;;;26.65;13.20;;;;;;;1.06;88.88;98225.44;5092020;28;20056;-61
2022/02/09 21:02:54;;;;;;;10.32;5.70;;;;;;;0.96;89.13;98217.63;5082734;28;20106;-60
2022/02/09 21:08:00;;;;;;;12.73;5.32;;;;;;;0.66;89.32;98227.97;5083954;28;20037;-60
2022/02/09 21:11:16;;;;;;;10.50;5.93;;;;;;;0.68;90.09;98228.63;5081661;28;20059;-60
2022/02/09 21:18:44;;;;;;;10.82;5.28;;;;;;;0.69;88.80;98227.63;5084755;28;20040;-59
2022/02/09 21:55:42;;;;;;;10.13;4.80;;;;;;;1.07;86.90;98195.91;5083348;28;20929;-61
2022/02/09 21:58:22;;;;;;;7.35;3.38;;;;;;;1.23;86.82;98196.88;5079276;28;20435;-61
2022/02/09 22:01:16;;;;;;;7.10;3.65;;;;;;;1.30;86.37;98197.84;5100745;28;20040;-59
2022/02/09 22:07:03;;;;;;;7.20;3.50;;;;;;;1.00;85.28;98194.94;5082183;28;20047;-60
2022/02/09 22:28:31;;;;;;;9.07;4.38;;;;;;;1.16;85.66;98176.22;5079675;28;20051;-61
2022/02/09 22:55:25;;;;;;;10.95;5.00;;;;;;;0.86;85.62;98153.78;5083221;28;20036;-59
2022/02/09 22:57:55;;;;;;;9.60;4.10;;;;;;;0.82;85.04;98157.81;5091469;28;20043;-60
2022/02/09 23:00:50;;;;;;;11.00;4.35;;;;;;;0.75;85.09;98153.16;5083682;28;20768;-60
2022/02/09 23:03:23;;;;;;;11.65;4.25;;;;;;;0.73;85.50;98157.81;5079377;28;20052;-61
2022/02/09 23:11:50;;;;;;;8.18;4.05;;;;;;;0.81;84.85;98142.81;5083195;28;20036;-61
2022/02/09 23:25:40;;;;;;;8.88;3.85;;;;;;;0.61;84.63;98135.16;5081999;28;20168;-61
